createdAt,value
2022-11-30T00:02:20.309Z,14.33
2022-11-30T00:04:52.865Z,13.87
2022-11-30T00:07:22.804Z,13.43
2022-11-30T00:09:52.613Z,15.27
2022-11-30T00:12:22.589Z,13.90
2022-11-30T00:14:52.309Z,15.17
2022-11-30T00:17:22.056Z,15.10
2022-11-30T00:19:54.403Z,16.20
2022-11-30T00:22:24.209Z,17.07
2022-11-30T00:24:53.947Z,15.37
2022-11-30T00:27:23.800Z,15.10
2022-11-30T00:29:53.660Z,15.60
2022-11-30T00:32:23.590Z,15.97
2022-11-30T00:34:56.508Z,15.77
2022-11-30T00:37:26.378Z,14.40
2022-11-30T00:39:56.149Z,15.93
2022-11-30T00:42:25.973Z,16.23
2022-11-30T00:44:55.837Z,15.87
2022-11-30T00:47:25.725Z,17.33
2022-11-30T00:49:58.265Z,12.50
2022-11-30T00:52:28.155Z,12.27
2022-11-30T00:54:58.144Z,14.80
2022-11-30T00:57:28.003Z,15.93
2022-11-30T00:59:57.862Z,15.63
2022-11-30T01:02:27.764Z,15.47
2022-11-30T01:05:00.251Z,13.03
2022-11-30T01:07:30.263Z,12.03
2022-11-30T01:10:00.119Z,13.33
2022-11-30T01:12:29.937Z,12.50
2022-11-30T01:14:59.686Z,14.13
2022-11-30T01:17:29.544Z,14.20
2022-11-30T01:20:04.666Z,15.00
2022-11-30T01:22:34.582Z,15.83
2022-11-30T01:25:04.470Z,14.50
2022-11-30T01:27:34.303Z,15.23
2022-11-30T01:30:04.033Z,15.27
2022-11-30T01:32:33.955Z,15.63
2022-11-30T01:35:09.612Z,15.47
2022-11-30T01:37:39.581Z,14.27
2022-11-30T01:40:10.811Z,14.47
2022-11-30T01:42:40.701Z,14.43
2022-11-30T01:45:15.884Z,14.07
2022-11-30T01:47:50.634Z,13.67
2022-11-30T01:50:26.625Z,15.40
2022-11-30T01:52:59.452Z,15.23
2022-11-30T01:55:32.846Z,16.67
2022-11-30T01:58:06.724Z,17.13
2022-11-30T02:00:36.611Z,17.17
2022-11-30T02:03:11.408Z,17.77
2022-11-30T02:05:44.577Z,17.80
2022-11-30T02:08:14.656Z,17.03
2022-11-30T02:10:58.187Z,17.27
2022-11-30T02:13:47.772Z,15.97
2022-11-30T02:16:30.273Z,15.97
2022-11-30T02:19:29.640Z,15.93
2022-11-30T02:22:06.301Z,15.67
2022-11-30T02:24:52.735Z,15.73
2022-11-30T02:27:34.630Z,15.30
2022-11-30T02:30:11.485Z,14.80
2022-11-30T02:32:48.563Z,16.37
2022-11-30T02:35:22.070Z,15.23
2022-11-30T02:37:54.765Z,16.00
2022-11-30T02:40:25.286Z,14.87
2022-11-30T02:42:57.421Z,14.80
2022-11-30T02:45:34.631Z,15.43
2022-11-30T02:48:11.018Z,15.73
2022-11-30T02:50:44.939Z,15.37
2022-11-30T02:53:14.715Z,17.03
2022-11-30T02:55:44.401Z,16.80
2022-11-30T02:58:14.590Z,17.43
2022-11-30T03:00:47.314Z,16.20
2022-11-30T03:03:17.028Z,16.77
2022-11-30T03:05:46.852Z,18.30
2022-11-30T03:08:16.746Z,17.83
2022-11-30T03:10:46.622Z,16.63
2022-11-30T03:13:16.347Z,16.17
2022-11-30T03:15:49.181Z,16.70
2022-11-30T03:18:18.968Z,15.80
2022-11-30T03:20:48.654Z,16.73
2022-11-30T03:23:18.457Z,15.67
2022-11-30T03:25:48.179Z,16.33
2022-11-30T03:28:17.915Z,16.57
2022-11-30T03:30:54.086Z,15.47
2022-11-30T03:33:23.854Z,15.33
2022-11-30T03:36:02.087Z,16.27
2022-11-30T03:38:32.446Z,16.73
2022-11-30T03:41:03.525Z,16.70
2022-11-30T03:43:33.478Z,17.20
2022-11-30T03:46:06.470Z,16.03
2022-11-30T03:48:36.579Z,16.40
2022-11-30T03:51:06.924Z,16.70
2022-11-30T03:53:36.889Z,15.80
2022-11-30T03:56:15.627Z,15.67
2022-11-30T03:58:54.944Z,15.90
2022-11-30T04:04:40.042Z,17.07
2022-11-30T04:07:09.751Z,16.13
2022-11-30T04:09:39.659Z,17.20
2022-11-30T04:12:09.880Z,17.50
2022-11-30T04:14:39.662Z,18.27
2022-11-30T04:17:09.499Z,17.67
2022-11-30T04:19:41.820Z,17.77
2022-11-30T04:22:11.553Z,17.60
2022-11-30T04:24:41.289Z,16.50
2022-11-30T04:27:11.121Z,17.23
2022-11-30T04:29:40.854Z,16.87
2022-11-30T04:32:10.668Z,17.07
2022-11-30T04:34:43.106Z,17.40
2022-11-30T04:37:12.809Z,17.67
2022-11-30T04:39:42.508Z,16.20
2022-11-30T04:42:12.238Z,18.73
2022-11-30T04:44:41.943Z,17.93
2022-11-30T04:47:11.648Z,17.87
2022-11-30T04:49:43.993Z,19.50
2022-11-30T04:52:13.712Z,18.03
2022-11-30T04:54:43.438Z,19.07
2022-11-30T04:57:13.182Z,17.13
2022-11-30T04:59:42.892Z,17.87
2022-11-30T05:02:12.860Z,17.93
2022-11-30T05:04:46.427Z,18.37
2022-11-30T05:07:17.048Z,18.40
2022-11-30T05:09:47.242Z,17.83
2022-11-30T05:12:26.314Z,20.07
2022-11-30T05:14:56.179Z,19.57
2022-11-30T05:17:29.484Z,19.43
2022-11-30T05:20:01.909Z,22.77
2022-11-30T05:22:31.705Z,23.17
2022-11-30T05:25:01.579Z,21.17
2022-11-30T05:27:31.631Z,23.47
2022-11-30T05:30:01.624Z,22.17
2022-11-30T05:32:31.528Z,21.37
2022-11-30T05:35:04.034Z,23.17
2022-11-30T05:37:34.847Z,21.23
2022-11-30T05:40:04.699Z,21.73
2022-11-30T05:42:34.491Z,22.53
2022-11-30T05:45:04.285Z,21.57
2022-11-30T05:47:34.277Z,22.80
2022-11-30T05:50:07.323Z,22.90
2022-11-30T05:52:41.127Z,21.70
2022-11-30T05:55:11.528Z,23.87
2022-11-30T05:57:42.285Z,22.97
2022-11-30T06:00:13.289Z,24.23
2022-11-30T06:02:43.269Z,23.60
2022-11-30T06:05:16.082Z,23.10
2022-11-30T06:07:46.020Z,25.47
2022-11-30T06:10:16.112Z,24.87
2022-11-30T06:12:45.867Z,23.13
2022-11-30T06:15:15.970Z,24.37
2022-11-30T06:17:52.750Z,22.57
2022-11-30T06:20:25.290Z,23.90
2022-11-30T06:22:55.051Z,23.43
2022-11-30T06:25:24.848Z,22.00
2022-11-30T06:27:54.985Z,22.97
2022-11-30T06:30:25.098Z,20.97
2022-11-30T06:32:55.342Z,23.10
2022-11-30T06:35:27.780Z,21.80
2022-11-30T06:37:57.650Z,20.10
2022-11-30T06:40:27.429Z,18.20
2022-11-30T06:42:57.210Z,20.37
2022-11-30T06:45:27.013Z,19.60
2022-11-30T06:47:58.496Z,19.37
2022-11-30T06:50:30.932Z,18.47
2022-11-30T06:53:00.731Z,20.13
2022-11-30T06:55:33.050Z,19.73
2022-11-30T06:58:08.531Z,18.57
2022-11-30T07:00:39.414Z,20.00
2022-11-30T07:03:09.624Z,20.37
2022-11-30T07:05:45.389Z,19.13
2022-11-30T07:08:15.635Z,20.63
2022-11-30T07:10:46.492Z,19.10
2022-11-30T07:13:17.640Z,19.77
2022-11-30T07:15:48.444Z,19.40
2022-11-30T07:18:18.164Z,20.03
2022-11-30T07:20:50.547Z,20.83
2022-11-30T07:23:32.651Z,19.23
2022-11-30T07:26:10.885Z,21.57
2022-11-30T07:28:43.192Z,19.87
2022-11-30T07:31:20.536Z,18.67
2022-11-30T07:33:51.390Z,20.20
2022-11-30T07:36:26.164Z,21.60
2022-11-30T07:38:55.930Z,21.00
2022-11-30T07:41:26.187Z,19.40
2022-11-30T07:43:55.918Z,20.80
2022-11-30T07:46:25.753Z,20.40
2022-11-30T07:48:55.697Z,21.37
2022-11-30T07:51:28.377Z,20.40
2022-11-30T07:53:59.528Z,20.10
2022-11-30T07:56:30.360Z,21.97
2022-11-30T07:59:02.663Z,21.17
2022-11-30T08:01:34.237Z,21.90
2022-11-30T08:04:04.448Z,21.57
2022-11-30T08:06:36.981Z,22.27
2022-11-30T08:09:07.354Z,22.47
2022-11-30T08:11:39.044Z,23.40
2022-11-30T08:14:09.005Z,22.47
2022-11-30T08:16:40.611Z,21.90
2022-11-30T08:19:10.357Z,21.40
2022-11-30T08:21:42.686Z,21.27
2022-11-30T08:24:14.860Z,21.63
2022-11-30T08:26:45.002Z,20.73
2022-11-30T08:29:14.829Z,20.03
2022-11-30T08:31:44.589Z,20.70
2022-11-30T08:34:16.214Z,20.33
2022-11-30T08:36:51.765Z,20.30
2022-11-30T08:39:21.990Z,20.40
2022-11-30T08:41:53.129Z,20.60
2022-11-30T08:44:22.838Z,21.30
2022-11-30T08:46:53.232Z,19.60
2022-11-30T08:49:24.781Z,22.47
2022-11-30T08:54:50.641Z,22.90
2022-11-30T08:57:22.758Z,22.43
2022-11-30T08:59:52.472Z,22.80
2022-11-30T09:02:22.488Z,22.13
2022-11-30T09:04:53.898Z,22.97
2022-11-30T09:07:26.338Z,22.87
2022-11-30T09:09:56.101Z,23.23
2022-11-30T09:12:25.832Z,23.53
2022-11-30T09:14:58.240Z,25.03
2022-11-30T09:17:31.289Z,23.60
2022-11-30T09:20:01.169Z,24.43
2022-11-30T09:22:33.512Z,25.83
2022-11-30T09:25:03.221Z,24.77
2022-11-30T09:27:35.164Z,25.47
2022-11-30T09:30:05.109Z,26.43
2022-11-30T09:32:34.866Z,24.57
2022-11-30T09:35:06.641Z,25.73
2022-11-30T09:37:42.372Z,25.87
2022-11-30T09:40:15.952Z,24.90
2022-11-30T09:42:55.179Z,27.07
2022-11-30T09:45:31.410Z,26.03
2022-11-30T09:48:26.346Z,23.20
2022-11-30T09:50:57.820Z,27.87
2022-11-30T09:53:41.227Z,25.43
2022-11-30T09:56:22.943Z,27.87
2022-11-30T09:58:58.069Z,28.57
2022-11-30T10:01:32.010Z,27.00
2022-11-30T10:04:02.705Z,27.13
2022-11-30T10:06:42.534Z,26.77
2022-11-30T10:09:57.578Z,27.50
2022-11-30T10:12:42.420Z,26.70
2022-11-30T10:15:25.616Z,26.30
2022-11-30T10:17:57.828Z,26.73
2022-11-30T10:20:47.859Z,26.10
2022-11-30T10:23:33.005Z,26.50
2022-11-30T10:26:11.788Z,28.50
2022-11-30T10:28:52.003Z,27.83
2022-11-30T10:31:24.396Z,27.13
2022-11-30T10:33:55.919Z,27.47
2022-11-30T10:36:32.580Z,25.97
2022-11-30T10:39:05.684Z,26.73
2022-11-30T10:41:46.236Z,28.27
2022-11-30T10:44:23.337Z,27.13
2022-11-30T10:47:01.136Z,27.13
2022-11-30T10:49:33.457Z,26.63
2022-11-30T10:52:07.357Z,26.60
2022-11-30T10:54:38.997Z,27.17
2022-11-30T10:57:14.579Z,27.70
2022-11-30T10:59:47.867Z,26.60
2022-11-30T11:02:37.719Z,28.27
2022-11-30T11:05:23.221Z,28.30
2022-11-30T11:08:05.932Z,27.03
2022-11-30T11:10:38.644Z,27.17
2022-11-30T11:13:19.244Z,27.97
2022-11-30T11:16:00.897Z,28.00
2022-11-30T11:18:32.462Z,27.97
2022-11-30T11:21:08.141Z,26.77
2022-11-30T11:23:40.735Z,27.63
2022-11-30T11:26:21.768Z,27.80
2022-11-30T11:28:56.250Z,26.40
2022-11-30T11:31:38.194Z,27.23
2022-11-30T11:34:10.098Z,28.97
2022-11-30T11:36:39.790Z,28.67
2022-11-30T11:39:28.413Z,30.17
2022-11-30T11:41:58.894Z,28.53
2022-11-30T11:44:31.952Z,28.10
2022-11-30T11:47:04.202Z,27.57
2022-11-30T11:49:37.541Z,28.13
2022-11-30T11:52:09.432Z,26.70
2022-11-30T11:54:45.083Z,28.03
2022-11-30T11:57:18.441Z,27.57
2022-11-30T11:59:57.092Z,27.97
2022-11-30T12:02:35.016Z,28.67
2022-11-30T12:05:09.795Z,27.67
2022-11-30T12:07:45.191Z,26.60
2022-11-30T12:13:22.688Z,27.50
2022-11-30T12:16:07.351Z,29.47
2022-11-30T12:18:46.399Z,28.13
2022-11-30T12:21:18.342Z,28.80
2022-11-30T12:24:03.452Z,27.20
2022-11-30T12:26:40.847Z,27.60
2022-11-30T12:29:23.699Z,29.43
2022-11-30T12:32:07.518Z,27.83
2022-11-30T12:34:51.737Z,27.73
2022-11-30T12:37:32.208Z,25.83
2022-11-30T12:40:20.084Z,27.67
2022-11-30T12:42:58.629Z,27.50
2022-11-30T12:45:34.437Z,28.17
2022-11-30T12:48:17.429Z,27.83
2022-11-30T12:50:59.740Z,26.70
2022-11-30T12:53:35.739Z,27.97
2022-11-30T12:56:18.889Z,27.67
2022-11-30T12:58:56.775Z,28.77
2022-11-30T13:01:49.679Z,26.80
2022-11-30T13:04:28.564Z,27.43
2022-11-30T13:07:03.251Z,26.47
2022-11-30T13:09:40.219Z,27.60
2022-11-30T13:12:15.324Z,27.83
2022-11-30T13:14:46.648Z,29.13
2022-11-30T13:17:20.451Z,27.57
2022-11-30T13:20:04.273Z,30.30
2022-11-30T13:22:45.775Z,29.77
2022-11-30T13:25:59.317Z,28.60
2022-11-30T13:28:20.956Z,29.53
2022-11-30T13:30:56.587Z,30.47
2022-11-30T13:33:50.640Z,29.43
2022-11-30T13:36:35.693Z,31.57
2022-11-30T13:39:27.364Z,27.93
2022-11-30T13:42:31.745Z,27.17
2022-11-30T13:45:03.742Z,30.47
2022-11-30T13:47:35.949Z,30.40
2022-11-30T13:50:11.693Z,29.47
2022-11-30T13:53:13.970Z,32.80
2022-11-30T13:55:59.484Z,30.43
2022-11-30T13:58:30.357Z,30.50
2022-11-30T14:01:23.975Z,30.53
2022-11-30T14:04:26.097Z,29.87
2022-11-30T14:06:59.485Z,29.53
2022-11-30T14:10:02.046Z,28.83
2022-11-30T14:12:59.605Z,29.90
2022-11-30T14:15:57.271Z,30.07
2022-11-30T14:18:34.645Z,29.17
2022-11-30T14:21:08.402Z,29.23
2022-11-30T14:23:49.664Z,29.53
2022-11-30T14:26:24.167Z,29.07
2022-11-30T14:29:16.875Z,29.83
2022-11-30T14:31:56.124Z,31.43
2022-11-30T14:34:30.395Z,29.27
2022-11-30T14:37:04.028Z,31.37
2022-11-30T14:39:37.666Z,30.43
2022-11-30T14:42:08.641Z,32.13
2022-11-30T14:44:43.593Z,31.27
2022-11-30T14:47:17.952Z,31.50
2022-11-30T14:49:52.472Z,29.33
2022-11-30T14:52:38.620Z,31.63
2022-11-30T14:55:20.481Z,32.13
2022-11-30T14:57:59.453Z,32.63
2022-11-30T15:00:40.632Z,30.90
2022-11-30T15:03:21.980Z,29.87
2022-11-30T15:05:54.945Z,30.83
2022-11-30T15:08:26.838Z,33.43
2022-11-30T15:10:58.657Z,32.90
2022-11-30T15:13:30.488Z,32.27
2022-11-30T15:16:03.002Z,33.63
2022-11-30T15:18:32.821Z,32.83
2022-11-30T15:21:06.383Z,32.10
2022-11-30T15:23:36.998Z,33.67
2022-11-30T15:26:14.864Z,34.33
2022-11-30T15:28:47.768Z,32.77
2022-11-30T15:31:20.755Z,31.83
2022-11-30T15:33:52.759Z,29.97
2022-11-30T15:36:33.508Z,29.73
2022-11-30T15:39:06.908Z,31.03
2022-11-30T15:41:37.956Z,30.83
2022-11-30T15:44:08.299Z,28.27
2022-11-30T15:46:46.629Z,30.47
2022-11-30T15:49:21.116Z,32.40
2022-11-30T15:52:04.325Z,30.57
2022-11-30T15:54:52.920Z,30.63
2022-11-30T15:57:23.214Z,29.97
2022-11-30T16:00:10.371Z,29.37
2022-11-30T16:02:42.882Z,30.40
2022-11-30T16:05:27.878Z,29.80
2022-11-30T16:08:01.386Z,29.70
2022-11-30T16:10:35.747Z,29.43
2022-11-30T16:13:05.988Z,29.37
2022-11-30T16:15:37.522Z,30.57
2022-11-30T16:18:18.297Z,33.17
2022-11-30T16:20:50.324Z,29.93
2022-11-30T16:23:21.127Z,30.77
2022-11-30T16:25:52.740Z,29.83
2022-11-30T16:28:24.449Z,29.93
2022-11-30T16:30:54.527Z,30.53
2022-11-30T16:33:27.800Z,32.97
2022-11-30T16:35:59.584Z,33.43
2022-11-30T16:38:30.478Z,28.53
2022-11-30T16:41:16.865Z,35.23
2022-11-30T16:43:47.313Z,30.93
2022-11-30T16:46:19.435Z,29.87
2022-11-30T16:48:52.528Z,30.77
2022-11-30T16:51:25.422Z,32.73
2022-11-30T16:53:55.141Z,31.57
2022-11-30T16:56:24.908Z,29.47
2022-11-30T16:58:55.673Z,30.87
2022-11-30T17:01:34.841Z,31.40
2022-11-30T17:04:17.950Z,32.80
2022-11-30T17:06:50.723Z,32.53
2022-11-30T17:09:23.320Z,33.47
2022-11-30T17:11:54.185Z,32.50
2022-11-30T17:14:24.018Z,31.80
2022-11-30T17:16:53.795Z,33.53
2022-11-30T17:19:26.244Z,35.07
2022-11-30T17:21:57.060Z,33.87
2022-11-30T17:24:26.751Z,33.93
2022-11-30T17:26:56.440Z,33.33
2022-11-30T17:29:26.109Z,34.17
2022-11-30T17:31:55.800Z,32.77
2022-11-30T17:34:28.125Z,32.40
2022-11-30T17:36:57.866Z,31.53
2022-11-30T17:39:27.566Z,32.47
2022-11-30T17:41:57.248Z,32.60
2022-11-30T17:44:26.933Z,29.67
2022-11-30T17:46:56.639Z,30.63
2022-11-30T17:49:28.988Z,32.00
2022-11-30T17:51:58.690Z,33.27
2022-11-30T17:54:28.361Z,33.87
2022-11-30T17:56:58.104Z,32.87
2022-11-30T17:59:27.773Z,35.10
2022-11-30T18:01:57.565Z,33.23
2022-11-30T18:04:30.007Z,32.40
2022-11-30T18:06:59.662Z,34.07
2022-11-30T18:09:29.340Z,31.40
2022-11-30T18:11:58.999Z,31.53
2022-11-30T18:14:28.926Z,30.07
2022-11-30T18:16:58.632Z,29.03
2022-11-30T18:19:31.023Z,27.83
2022-11-30T18:22:00.716Z,30.67
2022-11-30T18:24:30.430Z,29.60
2022-11-30T18:27:00.135Z,30.63
2022-11-30T18:29:30.213Z,30.77
2022-11-30T18:31:59.860Z,28.97
2022-11-30T18:34:32.221Z,30.17
2022-11-30T18:37:01.940Z,32.70
2022-11-30T18:39:31.654Z,31.27
2022-11-30T18:42:01.360Z,31.50
2022-11-30T18:44:31.065Z,34.30
2022-11-30T18:47:00.761Z,32.90
2022-11-30T18:49:33.057Z,30.37
2022-11-30T18:52:02.740Z,29.67
2022-11-30T18:54:32.463Z,29.83
2022-11-30T18:57:02.274Z,31.60
2022-11-30T18:59:32.008Z,29.80
2022-11-30T19:02:01.767Z,31.50
2022-11-30T19:04:34.275Z,31.00
2022-11-30T19:07:03.952Z,30.37
2022-11-30T19:09:33.604Z,29.83
2022-11-30T19:12:03.287Z,28.80
2022-11-30T19:14:33.263Z,32.50
2022-11-30T19:17:03.078Z,30.80
2022-11-30T19:19:35.496Z,32.90
2022-11-30T19:22:05.192Z,29.63
2022-11-30T19:24:36.186Z,31.93
2022-11-30T19:27:05.885Z,31.37
2022-11-30T19:29:35.571Z,32.53
2022-11-30T19:32:05.235Z,29.63
2022-11-30T19:34:37.568Z,31.47
2022-11-30T19:37:07.253Z,31.77
2022-11-30T19:39:37.013Z,32.10
2022-11-30T19:42:07.274Z,30.90
2022-11-30T19:44:36.952Z,29.53
2022-11-30T19:47:06.639Z,31.33
2022-11-30T19:49:38.956Z,31.33
2022-11-30T19:52:08.774Z,31.27
2022-11-30T19:54:38.473Z,32.80
2022-11-30T19:57:08.251Z,32.93
2022-11-30T19:59:37.968Z,30.00
2022-11-30T20:02:08.517Z,32.87
2022-11-30T20:04:40.921Z,30.57
2022-11-30T20:07:10.596Z,30.53
2022-11-30T20:09:40.296Z,33.50
2022-11-30T20:12:10.135Z,31.97
2022-11-30T20:14:39.792Z,32.13
2022-11-30T20:17:10.114Z,30.23
2022-11-30T20:19:42.683Z,30.97
2022-11-30T20:22:12.459Z,30.87
2022-11-30T20:24:42.164Z,31.83
2022-11-30T20:27:11.847Z,29.43
2022-11-30T20:29:41.573Z,28.57
2022-11-30T20:32:11.269Z,29.47
2022-11-30T20:34:44.852Z,30.83
2022-11-30T20:37:15.745Z,34.00
2022-11-30T20:39:46.257Z,30.13
2022-11-30T20:42:16.283Z,31.50
2022-11-30T20:44:46.096Z,30.63
2022-11-30T20:47:15.915Z,30.90
2022-11-30T20:49:48.271Z,30.13
2022-11-30T20:52:18.023Z,29.77
2022-11-30T20:54:47.855Z,29.17
2022-11-30T20:57:17.742Z,29.17
2022-11-30T20:59:47.456Z,32.37
2022-11-30T21:02:17.369Z,30.67
2022-11-30T21:04:50.050Z,32.50
2022-11-30T21:07:20.032Z,33.07
2022-11-30T21:09:49.852Z,31.57
2022-11-30T21:12:19.540Z,31.20
2022-11-30T21:14:49.705Z,29.27
2022-11-30T21:17:19.725Z,28.30
2022-11-30T21:19:52.000Z,29.97
2022-11-30T21:22:21.814Z,30.87
2022-11-30T21:24:52.476Z,29.87
2022-11-30T21:27:22.197Z,28.40
2022-11-30T21:29:51.873Z,28.00
2022-11-30T21:32:21.528Z,29.67
2022-11-30T21:34:53.830Z,29.17
2022-11-30T21:37:23.507Z,29.53
2022-11-30T21:39:53.355Z,34.80
2022-11-30T21:42:23.074Z,31.03
2022-11-30T21:44:52.732Z,31.20
2022-11-30T21:47:22.417Z,31.07
2022-11-30T21:49:54.680Z,33.30
2022-11-30T21:52:24.364Z,29.63
2022-11-30T21:54:54.048Z,32.47
2022-11-30T21:57:23.844Z,31.57
2022-11-30T21:59:53.629Z,29.50
2022-11-30T22:02:24.722Z,30.30
2022-11-30T22:04:57.251Z,26.73
2022-11-30T22:07:32.065Z,28.63
2022-11-30T22:10:01.893Z,33.40
2022-11-30T22:12:31.583Z,32.53
2022-11-30T22:15:01.367Z,32.70
2022-11-30T22:17:31.284Z,33.63
2022-11-30T22:20:03.902Z,35.43
2022-11-30T22:22:33.687Z,32.00
2022-11-30T22:25:03.371Z,34.00
2022-11-30T22:27:33.214Z,34.33
2022-11-30T22:30:02.925Z,32.90
2022-11-30T22:32:32.692Z,34.93
2022-11-30T22:35:04.995Z,33.33
2022-11-30T22:37:34.675Z,33.40
2022-11-30T22:40:04.381Z,35.20
2022-11-30T22:42:34.044Z,33.63
2022-11-30T22:45:03.706Z,32.37
2022-11-30T22:47:33.395Z,32.43
2022-11-30T22:50:05.739Z,34.20
2022-11-30T22:53:01.387Z,30.30
2022-11-30T22:55:25.158Z,31.67
2022-11-30T22:57:54.981Z,32.17
2022-11-30T23:00:24.703Z,34.33
2022-11-30T23:02:54.548Z,35.03
2022-11-30T23:05:26.888Z,36.20
2022-11-30T23:07:56.960Z,35.23
2022-11-30T23:10:26.692Z,34.70
2022-11-30T23:13:00.217Z,36.47
2022-11-30T23:15:30.116Z,36.70
2022-11-30T23:17:59.815Z,33.27
2022-11-30T23:20:32.636Z,34.47
2022-11-30T23:23:02.318Z,35.10
2022-11-30T23:25:32.004Z,31.80
2022-11-30T23:28:01.701Z,31.77
2022-11-30T23:30:31.400Z,32.53
2022-11-30T23:33:01.135Z,34.53
2022-11-30T23:35:33.431Z,35.97
2022-11-30T23:38:03.169Z,35.43
2022-11-30T23:40:32.965Z,36.43
2022-11-30T23:43:02.767Z,34.93
2022-11-30T23:45:32.818Z,34.40
2022-11-30T23:48:02.517Z,33.33
2022-11-30T23:50:34.784Z,33.67
2022-11-30T23:53:04.513Z,33.50
2022-11-30T23:55:34.179Z,32.50
2022-11-30T23:58:03.870Z,33.67
